createdAt,value
2018-07-10T00:02:30.482Z,95684.08
2018-07-10T00:07:29.570Z,95689.76
2018-07-10T00:12:18.412Z,95686.53
2018-07-10T00:14:48.498Z,95678.74
2018-07-10T00:17:18.699Z,95676.05
2018-07-10T00:19:48.952Z,95684.70
2018-07-10T00:22:19.127Z,95683.07
2018-07-10T00:24:49.320Z,95680.37
2018-07-10T00:27:19.951Z,95680.66
2018-07-10T00:29:50.105Z,95679.59
2018-07-10T00:32:20.251Z,95677.68
2018-07-10T00:34:50.494Z,95680.37
2018-07-10T00:37:20.751Z,95675.55
2018-07-10T00:39:50.958Z,95683.88
2018-07-10T00:42:21.194Z,95677.68
2018-07-10T00:44:51.575Z,95669.34
2018-07-10T00:47:21.774Z,95676.34
2018-07-10T00:49:52.026Z,95672.82
2018-07-10T00:52:34.128Z,95663.14
2018-07-10T00:55:04.387Z,95664.48
2018-07-10T00:57:34.720Z,95667.17
2018-07-10T01:00:04.938Z,95658.80
2018-07-10T01:02:34.638Z,95663.13
2018-07-10T01:05:04.882Z,95663.39
2018-07-10T01:07:35.069Z,95655.86
2018-07-10T01:10:05.223Z,95655.59
2018-07-10T01:12:34.936Z,95656.12
2018-07-10T01:15:05.172Z,95652.92
2018-07-10T01:17:35.424Z,95659.38
2018-07-10T01:20:05.695Z,95652.12
2018-07-10T01:22:36.006Z,95649.98
2018-07-10T01:25:06.210Z,95654.84
2018-07-10T01:27:37.229Z,95648.36
2018-07-10T01:30:07.499Z,95652.96
2018-07-10T01:32:37.680Z,95648.64
2018-07-10T01:35:07.981Z,95649.45
2018-07-10T01:37:38.558Z,95648.10
2018-07-10T01:40:08.811Z,95656.19
2018-07-10T01:42:38.996Z,95651.86
2018-07-10T01:45:09.241Z,95646.50
2018-07-10T01:47:39.400Z,95661.03
2018-07-10T01:50:10.544Z,95646.50
2018-07-10T01:52:40.731Z,95649.73
2018-07-10T01:55:11.036Z,95648.10
2018-07-10T01:57:41.652Z,95641.37
2018-07-10T02:00:12.338Z,95640.58
2018-07-10T02:02:42.547Z,95640.05
2018-07-10T02:05:12.805Z,95637.06
2018-07-10T02:07:43.078Z,95631.43
2018-07-10T02:10:12.834Z,95628.45
2018-07-10T02:12:43.025Z,95626.81
2018-07-10T02:15:13.150Z,95620.89
2018-07-10T02:17:43.358Z,95622.23
2018-07-10T02:20:13.629Z,95633.00
2018-07-10T02:22:44.516Z,95626.55
2018-07-10T02:25:14.822Z,95617.95
2018-07-10T02:27:45.015Z,95617.67
2018-07-10T02:30:15.379Z,95613.62
2018-07-10T02:32:45.757Z,95610.39
2018-07-10T02:35:16.596Z,95607.17
2018-07-10T02:37:49.328Z,95612.55
2018-07-10T02:40:19.554Z,95603.37
2018-07-10T02:42:49.714Z,95595.06
2018-07-10T02:45:20.035Z,95594.77
2018-07-10T02:47:49.800Z,95592.89
2018-07-10T02:50:20.028Z,95598.80
2018-07-10T02:52:50.898Z,95594.23
2018-07-10T02:55:21.118Z,95587.52
2018-07-10T02:57:51.432Z,95586.70
2018-07-10T03:00:21.773Z,95594.50
2018-07-10T03:02:53.625Z,95596.65
2018-07-10T03:05:23.882Z,95596.93
2018-07-10T03:07:54.067Z,95594.25
2018-07-10T03:10:24.293Z,95593.71
2018-07-10T03:12:54.566Z,95594.77
2018-07-10T03:15:24.751Z,95594.77
2018-07-10T03:17:55.016Z,95586.45
2018-07-10T03:20:25.263Z,95588.56
2018-07-10T03:22:55.447Z,95592.88
2018-07-10T03:25:25.613Z,95562.73
2018-07-10T03:27:55.899Z,95565.68
2018-07-10T03:30:26.023Z,95590.45
2018-07-10T03:32:56.288Z,95591.52
2018-07-10T03:35:26.522Z,95597.17
2018-07-10T03:37:56.755Z,95596.09
2018-07-10T03:40:30.639Z,95596.91
2018-07-10T03:43:00.835Z,95593.43
2018-07-10T03:45:31.033Z,95588.84
2018-07-10T03:48:01.290Z,95593.41
2018-07-10T03:50:33.728Z,95597.73
2018-07-10T03:53:04.619Z,95598.55
2018-07-10T03:55:38.030Z,95602.59
2018-07-10T03:58:08.288Z,95601.48
2018-07-10T04:00:38.711Z,95610.12
2018-07-10T04:03:08.935Z,95605.52
2018-07-10T04:05:39.185Z,95600.96
2018-07-10T04:08:10.559Z,95592.89
2018-07-10T04:13:19.528Z,95596.38
2018-07-10T04:15:54.099Z,95592.08
2018-07-10T04:18:28.083Z,95589.39
2018-07-10T04:21:27.320Z,95586.70
2018-07-10T04:24:17.715Z,95587.23
2018-07-10T04:27:33.247Z,95589.13
2018-07-10T04:30:13.461Z,95592.89
2018-07-10T04:32:44.127Z,95586.98
2018-07-10T04:35:18.013Z,95580.50
2018-07-10T04:37:51.810Z,95572.45
2018-07-10T04:40:22.214Z,95571.64
2018-07-10T04:43:00.770Z,95569.48
2018-07-10T04:45:40.895Z,95578.09
2018-07-10T04:48:27.451Z,95579.44
2018-07-10T04:51:09.055Z,95576.73
2018-07-10T04:53:51.371Z,95574.86
2018-07-10T04:56:22.112Z,95571.36
2018-07-10T04:58:56.719Z,95567.05
2018-07-10T05:01:34.864Z,95560.31
2018-07-10T05:04:05.599Z,95564.91
2018-07-10T05:06:38.713Z,95558.18
2018-07-10T05:09:08.973Z,95563.81
2018-07-10T05:11:43.636Z,95564.34
2018-07-10T05:14:13.843Z,95568.39
2018-07-10T05:16:44.035Z,95564.34
2018-07-10T05:19:14.272Z,95570.55
2018-07-10T05:21:44.494Z,95565.70
2018-07-10T05:24:14.954Z,95564.34
2018-07-10T05:26:46.452Z,95564.87
2018-07-10T05:29:17.439Z,95566.80
2018-07-10T05:31:47.592Z,95570.52
2018-07-10T05:34:17.851Z,95572.95
2018-07-10T05:36:48.120Z,95573.48
2018-07-10T05:39:18.285Z,95568.91
2018-07-10T05:41:48.861Z,95570.79
2018-07-10T05:44:21.674Z,95567.57
2018-07-10T05:46:51.872Z,95563.53
2018-07-10T05:49:22.234Z,95567.81
2018-07-10T05:51:53.253Z,95567.28
2018-07-10T05:54:24.985Z,95573.73
2018-07-10T05:56:55.150Z,95564.25
2018-07-10T05:59:25.325Z,95565.59
2018-07-10T06:01:56.236Z,95562.38
2018-07-10T06:04:26.436Z,95565.59
2018-07-10T06:06:56.189Z,95560.47
2018-07-10T06:09:26.311Z,95565.56
2018-07-10T06:11:56.492Z,95575.77
2018-07-10T06:14:26.690Z,95574.16
2018-07-10T06:16:56.838Z,95569.31
2018-07-10T06:19:27.118Z,95573.58
2018-07-10T06:21:57.312Z,95572.98
2018-07-10T06:24:28.751Z,95569.50
2018-07-10T06:27:03.240Z,95574.09
2018-07-10T06:30:09.456Z,95570.34
2018-07-10T06:32:54.848Z,95573.81
2018-07-10T06:36:31.925Z,95570.56
2018-07-10T06:39:13.205Z,95565.97
2018-07-10T06:41:54.555Z,95571.91
2018-07-10T06:44:26.070Z,95571.34
2018-07-10T06:47:00.167Z,95575.66
2018-07-10T06:49:33.920Z,95570.00
2018-07-10T06:52:13.090Z,95570.29
2018-07-10T06:55:19.080Z,95566.29
2018-07-10T06:57:53.776Z,95559.27
2018-07-10T07:00:23.974Z,95560.32
2018-07-10T07:02:54.134Z,95561.43
2018-07-10T07:05:24.322Z,95561.16
2018-07-10T07:07:54.514Z,95557.70
2018-07-10T07:10:25.864Z,95554.72
2018-07-10T07:12:56.019Z,95560.16
2018-07-10T07:15:26.234Z,95555.02
2018-07-10T07:17:56.419Z,95560.16
2018-07-10T07:20:26.560Z,95556.91
2018-07-10T07:22:56.657Z,95567.42
2018-07-10T07:25:26.801Z,95559.86
2018-07-10T07:27:56.957Z,95564.14
2018-07-10T07:30:27.191Z,95563.03
2018-07-10T07:32:57.710Z,95561.94
2018-07-10T07:35:27.914Z,95560.31
2018-07-10T07:37:58.098Z,95556.00
2018-07-10T07:40:28.275Z,95557.83
2018-07-10T07:42:59.423Z,95558.64
2018-07-10T07:45:29.636Z,95555.19
2018-07-10T07:47:59.799Z,95557.89
2018-07-10T07:50:30.013Z,95554.91
2018-07-10T07:53:00.162Z,95561.89
2018-07-10T07:55:30.360Z,95548.70
2018-07-10T07:58:00.570Z,95548.16
2018-07-10T08:00:30.704Z,95545.68
2018-07-10T08:03:00.873Z,95544.77
2018-07-10T08:05:31.111Z,95546.24
2018-07-10T08:08:01.296Z,95540.73
2018-07-10T08:10:31.506Z,95544.77
2018-07-10T08:13:01.701Z,95537.10
2018-07-10T08:15:31.854Z,95531.86
2018-07-10T08:18:02.062Z,95534.39
2018-07-10T08:20:32.259Z,95528.42
2018-07-10T08:23:02.474Z,95528.77
2018-07-10T08:25:32.664Z,95534.31
2018-07-10T08:28:02.860Z,95529.35
2018-07-10T08:30:33.091Z,95526.70
2018-07-10T08:33:04.481Z,95530.02
2018-07-10T08:35:34.720Z,95525.23
2018-07-10T08:38:04.846Z,95520.84
2018-07-10T08:40:34.518Z,95519.97
2018-07-10T08:43:05.079Z,95517.23
2018-07-10T08:45:35.278Z,95514.57
2018-07-10T08:48:05.755Z,95526.03
2018-07-10T08:50:35.933Z,95533.61
2018-07-10T08:53:06.118Z,95543.06
2018-07-10T08:55:36.287Z,95536.35
2018-07-10T08:58:06.516Z,95532.56
2018-07-10T09:00:36.684Z,95539.38
2018-07-10T09:03:07.103Z,95535.35
2018-07-10T09:05:37.248Z,95540.08
2018-07-10T09:08:07.525Z,95538.80
2018-07-10T09:10:37.685Z,95539.67
2018-07-10T09:13:07.870Z,95533.03
2018-07-10T09:15:38.064Z,95539.44
2018-07-10T09:18:08.282Z,95541.87
2018-07-10T09:20:46.359Z,95545.70
2018-07-10T09:23:17.542Z,95544.16
2018-07-10T09:25:48.687Z,95548.19
2018-07-10T09:28:18.921Z,95544.55
2018-07-10T09:30:49.108Z,95545.47
2018-07-10T09:33:18.883Z,95558.98
2018-07-10T09:35:48.980Z,95543.88
2018-07-10T09:38:19.208Z,95539.85
2018-07-10T09:40:49.375Z,95542.34
2018-07-10T09:43:19.571Z,95549.64
2018-07-10T09:45:50.077Z,95548.81
2018-07-10T09:48:20.251Z,95547.47
2018-07-10T09:50:50.392Z,95546.94
2018-07-10T09:53:20.112Z,95541.61
2018-07-10T09:55:50.378Z,95547.00
2018-07-10T09:58:22.171Z,95553.45
2018-07-10T10:00:59.759Z,95548.64
2018-07-10T10:03:29.964Z,95546.24
2018-07-10T10:06:00.279Z,95533.02
2018-07-10T10:08:30.455Z,95538.70
2018-07-10T10:11:00.564Z,95550.30
2018-07-10T10:13:30.762Z,95555.41
2018-07-10T10:16:00.934Z,95558.19
2018-07-10T10:18:31.132Z,95559.78
2018-07-10T10:21:01.364Z,95558.73
2018-07-10T10:23:31.599Z,95554.39
2018-07-10T10:26:01.789Z,95533.67
2018-07-10T10:28:32.007Z,95556.81
2018-07-10T10:31:02.204Z,95562.46
2018-07-10T10:33:32.424Z,95560.57
2018-07-10T10:36:02.563Z,95558.66
2018-07-10T10:38:32.802Z,95562.16
2018-07-10T10:41:04.534Z,95564.81
2018-07-10T10:43:34.796Z,95557.28
2018-07-10T10:46:04.982Z,95562.41
2018-07-10T10:48:35.633Z,95559.70
2018-07-10T10:51:06.008Z,95557.28
2018-07-10T10:53:36.555Z,95556.25
2018-07-10T10:56:06.717Z,95555.70
2018-07-10T10:58:36.947Z,95563.22
2018-07-10T11:01:07.147Z,95569.42
2018-07-10T11:03:37.326Z,95557.34
2018-07-10T11:06:07.583Z,95554.38
2018-07-10T11:08:37.751Z,95553.34
2018-07-10T11:11:07.954Z,95538.52
2018-07-10T11:13:38.195Z,95546.59
2018-07-10T11:16:08.451Z,95540.42
2018-07-10T11:18:56.227Z,95543.11
2018-07-10T11:22:43.078Z,95537.19
2018-07-10T11:25:13.263Z,95545.78
2018-07-10T11:27:59.770Z,95541.50
2018-07-10T11:30:30.318Z,95546.31
2018-07-10T11:33:00.957Z,95538.27
2018-07-10T11:35:31.208Z,95537.70
2018-07-10T11:38:06.407Z,95531.21
2018-07-10T11:40:37.271Z,95536.00
2018-07-10T11:43:09.444Z,95542.42
2018-07-10T11:45:39.811Z,95537.55
2018-07-10T11:48:10.699Z,95536.22
2018-07-10T11:50:41.058Z,95546.09
2018-07-10T11:53:11.593Z,95535.30
2018-07-10T11:55:41.955Z,95531.45
2018-07-10T11:58:13.002Z,95534.63
2018-07-10T12:00:43.231Z,95529.41
2018-07-10T12:03:46.110Z,95529.34
2018-07-10T12:06:16.307Z,95527.11
2018-07-10T12:08:53.581Z,95533.59
2018-07-10T12:11:25.725Z,95532.21
2018-07-10T12:13:55.412Z,95522.33
2018-07-10T12:16:25.541Z,95514.04
2018-07-10T12:18:55.659Z,95517.14
2018-07-10T12:21:25.877Z,95515.54
2018-07-10T12:23:56.042Z,95515.52
2018-07-10T12:26:26.358Z,95518.08
2018-07-10T12:28:56.500Z,95503.02
2018-07-10T12:31:26.707Z,95508.05
2018-07-10T12:33:57.050Z,95516.27
2018-07-10T12:36:28.234Z,95523.27
2018-07-10T12:38:58.376Z,95508.59
2018-07-10T12:41:28.571Z,95518.56
2018-07-10T12:43:58.658Z,95509.40
2018-07-10T12:46:28.783Z,95513.42
2018-07-10T12:48:58.911Z,95504.42
2018-07-10T12:51:29.093Z,95510.98
2018-07-10T12:53:59.233Z,95508.91
2018-07-10T12:56:30.154Z,95499.56
2018-07-10T12:59:00.339Z,95494.02
2018-07-10T13:01:30.648Z,95498.45
2018-07-10T13:04:00.859Z,95495.65
2018-07-10T13:06:31.036Z,95488.67
2018-07-10T13:09:02.196Z,95487.17
2018-07-10T13:11:32.323Z,95491.73
2018-07-10T13:14:02.478Z,95480.20
2018-07-10T13:16:32.677Z,95482.02
2018-07-10T13:19:02.875Z,95474.02
2018-07-10T13:21:33.027Z,95479.63
2018-07-10T13:24:03.176Z,95467.79
2018-07-10T13:26:33.295Z,95462.27
2018-07-10T13:29:03.443Z,95471.42
2018-07-10T13:31:33.611Z,95474.99
2018-07-10T13:34:03.761Z,95462.79
2018-07-10T13:36:33.904Z,95464.39
2018-07-10T13:39:05.474Z,95460.97
2018-07-10T13:41:36.754Z,95465.35
2018-07-10T13:44:07.017Z,95467.83
2018-07-10T13:46:37.162Z,95457.23
2018-07-10T13:49:07.290Z,95472.20
2018-07-10T13:51:37.387Z,95468.18
2018-07-10T13:54:07.563Z,95470.23
2018-07-10T13:56:37.711Z,95475.02
2018-07-10T13:59:07.961Z,95471.56
2018-07-10T14:01:40.899Z,95477.58
2018-07-10T14:04:11.135Z,95476.47
2018-07-10T14:06:41.257Z,95485.52
2018-07-10T14:09:11.489Z,95489.89
2018-07-10T14:11:41.648Z,95482.98
2018-07-10T14:14:11.828Z,95492.20
2018-07-10T14:16:42.025Z,95488.39
2018-07-10T14:19:12.125Z,95483.80
2018-07-10T14:21:42.321Z,95480.36
2018-07-10T14:24:12.488Z,95476.97
2018-07-10T14:26:42.316Z,95480.23
2018-07-10T14:29:12.486Z,95482.25
2018-07-10T14:31:42.713Z,95486.78
2018-07-10T14:34:13.018Z,95490.34
2018-07-10T14:36:43.146Z,95489.56
2018-07-10T14:39:13.374Z,95480.73
2018-07-10T14:41:43.920Z,95478.00
2018-07-10T14:44:14.605Z,95480.25
2018-07-10T14:46:44.814Z,95476.88
2018-07-10T14:49:15.130Z,95474.36
2018-07-10T14:51:48.911Z,95468.53
2018-07-10T14:54:19.110Z,95472.47
2018-07-10T14:56:49.962Z,95475.02
2018-07-10T14:59:20.174Z,95476.45
2018-07-10T15:01:50.401Z,95478.63
2018-07-10T15:04:20.643Z,95472.95
2018-07-10T15:06:50.724Z,95475.38
2018-07-10T15:09:20.860Z,95470.16
2018-07-10T15:11:50.942Z,95463.80
2018-07-10T15:14:21.047Z,95471.50
2018-07-10T15:16:56.236Z,95467.59
2018-07-10T15:19:26.476Z,95464.84
2018-07-10T15:21:56.558Z,95467.40
2018-07-10T15:24:26.767Z,95453.63
2018-07-10T15:26:56.877Z,95452.66
2018-07-10T15:29:29.639Z,95444.80
2018-07-10T15:32:00.932Z,95449.28
2018-07-10T15:34:31.091Z,95459.69
2018-07-10T15:37:01.993Z,95446.88
2018-07-10T15:39:32.259Z,95453.65
2018-07-10T15:42:02.588Z,95444.08
2018-07-10T15:44:34.643Z,95444.75
2018-07-10T15:47:05.249Z,95447.61
2018-07-10T15:49:35.664Z,95446.80
2018-07-10T15:52:06.791Z,95441.15
2018-07-10T15:54:37.462Z,95438.30
2018-07-10T15:57:07.922Z,95432.34
2018-07-10T15:59:38.404Z,95435.86
2018-07-10T16:02:09.568Z,95426.41
2018-07-10T16:04:39.949Z,95431.91
2018-07-10T16:07:12.141Z,95434.87
2018-07-10T16:09:42.671Z,95433.44
2018-07-10T16:12:15.579Z,95431.93
2018-07-10T16:14:47.123Z,95435.98
2018-07-10T16:17:28.855Z,95425.73
2018-07-10T16:20:06.350Z,95429.71
2018-07-10T16:25:22.301Z,95428.90
2018-07-10T16:27:59.428Z,95434.20
2018-07-10T16:30:30.540Z,95430.27
2018-07-10T16:33:01.821Z,95433.28
2018-07-10T16:35:32.725Z,95441.41
2018-07-10T16:38:04.452Z,95432.11
2018-07-10T16:40:35.032Z,95433.19
2018-07-10T16:43:11.915Z,95440.20
2018-07-10T16:45:44.556Z,95433.03
2018-07-10T16:48:53.349Z,95433.06
2018-07-10T16:51:29.192Z,95434.89
2018-07-10T16:54:01.499Z,95437.66
2018-07-10T16:56:33.657Z,95433.95
2018-07-10T16:59:04.723Z,95441.70
2018-07-10T17:01:35.830Z,95441.42
2018-07-10T17:04:06.752Z,95436.21
2018-07-10T17:06:37.571Z,95438.08
2018-07-10T17:09:09.311Z,95440.92
2018-07-10T17:11:52.192Z,95433.89
2018-07-10T17:14:23.534Z,95440.52
2018-07-10T17:16:54.576Z,95433.00
2018-07-10T17:19:25.099Z,95440.23
2018-07-10T17:21:56.613Z,95437.20
2018-07-10T17:24:26.972Z,95443.61
2018-07-10T17:26:57.353Z,95445.16
2018-07-10T17:29:27.803Z,95441.16
2018-07-10T17:31:58.125Z,95443.59
2018-07-10T17:34:28.334Z,95446.82
2018-07-10T17:36:59.354Z,95447.06
2018-07-10T17:39:29.872Z,95441.84
2018-07-10T17:42:00.770Z,95442.61
2018-07-10T17:44:32.684Z,95436.37
2018-07-10T17:47:02.960Z,95440.45
2018-07-10T17:49:33.177Z,95445.06
2018-07-10T17:52:03.703Z,95440.52
2018-07-10T17:54:36.460Z,95438.84
2018-07-10T17:57:06.927Z,95443.46
2018-07-10T17:59:37.101Z,95445.67
2018-07-10T18:02:07.319Z,95442.68
2018-07-10T18:04:37.460Z,95447.92
2018-07-10T18:07:07.623Z,95445.83
2018-07-10T18:09:37.791Z,95447.67
2018-07-10T18:12:08.417Z,95449.00
2018-07-10T18:14:38.617Z,95452.88
2018-07-10T18:17:08.842Z,95460.43
2018-07-10T18:19:39.261Z,95460.59
2018-07-10T18:22:09.500Z,95454.97
2018-07-10T18:24:39.670Z,95458.25
2018-07-10T18:27:09.912Z,95459.98
2018-07-10T18:29:40.031Z,95467.80
2018-07-10T18:32:10.137Z,95466.53
2018-07-10T18:34:40.365Z,95469.03
2018-07-10T18:37:10.801Z,95473.31
2018-07-10T18:39:40.924Z,95474.45
2018-07-10T18:42:11.215Z,95476.09
2018-07-10T18:44:41.347Z,95480.14
2018-07-10T18:47:11.744Z,95483.41
2018-07-10T18:49:42.042Z,95481.53
2018-07-10T18:52:12.395Z,95482.88
2018-07-10T18:54:42.692Z,95486.98
2018-07-10T18:58:31.966Z,95491.33
2018-07-10T19:02:19.559Z,95483.55
2018-07-10T19:05:05.714Z,95484.13
2018-07-10T19:07:40.762Z,95477.38
2018-07-10T19:10:11.046Z,95486.56
2018-07-10T19:12:43.090Z,95489.81
2018-07-10T19:15:13.275Z,95487.91
2018-07-10T19:17:43.600Z,95494.13
2018-07-10T19:20:14.488Z,95489.28
2018-07-10T19:24:03.539Z,95491.45
2018-07-10T19:26:35.236Z,95497.63
2018-07-10T19:29:20.821Z,95499.52
2018-07-10T19:31:52.158Z,95502.46
2018-07-10T19:34:46.273Z,95501.38
2018-07-10T19:37:31.226Z,95503.23
2018-07-10T19:40:02.807Z,95504.81
2018-07-10T19:42:34.490Z,95510.73
2018-07-10T19:45:06.835Z,95504.23
2018-07-10T19:47:37.356Z,95503.70
2018-07-10T19:50:17.078Z,95496.67
2018-07-10T19:52:51.950Z,95503.91
2018-07-10T19:55:27.895Z,95508.97
2018-07-10T19:59:09.304Z,95503.27
2018-07-10T20:01:57.324Z,95510.95
2018-07-10T20:04:38.529Z,95504.72
2018-07-10T20:08:16.655Z,95505.21
2018-07-10T20:10:55.266Z,95507.48
2018-07-10T20:13:41.722Z,95502.89
2018-07-10T20:16:17.375Z,95503.91
2018-07-10T20:20:13.832Z,95503.47
2018-07-10T20:23:03.871Z,95521.56
2018-07-10T20:26:57.930Z,95513.16
2018-07-10T20:29:58.089Z,95520.35
2018-07-10T20:33:40.875Z,95519.80
2018-07-10T20:36:12.048Z,95518.41
2018-07-10T20:38:42.314Z,95523.24
2018-07-10T20:41:12.557Z,95525.92
2018-07-10T20:43:48.630Z,95531.28
2018-07-10T20:46:18.917Z,95530.20
2018-07-10T20:49:02.998Z,95534.19
2018-07-10T20:51:35.707Z,95538.73
2018-07-10T20:54:16.281Z,95533.61
2018-07-10T20:57:01.591Z,95539.27
2018-07-10T20:59:45.446Z,95538.16
2018-07-10T21:02:31.374Z,95536.06
2018-07-10T21:05:14.967Z,95537.89
2018-07-10T21:08:02.328Z,95534.37
2018-07-10T21:10:40.780Z,95536.81
2018-07-10T21:13:15.579Z,95534.08
2018-07-10T21:15:59.090Z,95532.22
2018-07-10T21:18:43.181Z,95531.13
2018-07-10T21:21:25.269Z,95535.45
2018-07-10T21:25:09.427Z,95528.72
2018-07-10T21:28:50.318Z,95527.32
2018-07-10T21:31:38.740Z,95523.23
2018-07-10T21:34:19.947Z,95522.13
2018-07-10T21:37:09.125Z,95522.39
2018-07-10T21:39:52.344Z,95520.99
2018-07-10T21:44:43.683Z,95515.87
2018-07-10T21:48:27.334Z,95510.19
2018-07-10T21:50:57.475Z,95505.29
2018-07-10T21:53:27.583Z,95514.86
2018-07-10T21:55:57.760Z,95511.03
2018-07-10T21:58:27.942Z,95508.62
2018-07-10T22:02:07.325Z,95508.84
2018-07-10T22:04:39.121Z,95508.48
2018-07-10T22:07:13.594Z,95508.41
2018-07-10T22:09:44.304Z,95506.45
2018-07-10T22:12:19.391Z,95496.30
2018-07-10T22:14:49.554Z,95502.88
2018-07-10T22:17:23.608Z,95500.46
2018-07-10T22:19:54.968Z,95499.83
2018-07-10T22:22:33.445Z,95501.69
2018-07-10T22:25:06.628Z,95496.00
2018-07-10T22:27:41.268Z,95500.49
2018-07-10T22:30:21.020Z,95496.67
2018-07-10T22:32:55.189Z,95498.08
2018-07-10T22:35:27.577Z,95496.59
2018-07-10T22:37:57.786Z,95495.11
2018-07-10T22:40:27.954Z,95495.33
2018-07-10T22:42:58.173Z,95492.88
2018-07-10T22:45:29.515Z,95488.91
2018-07-10T22:48:00.286Z,95494.06
2018-07-10T22:50:30.510Z,95489.80
2018-07-10T22:53:02.420Z,95489.27
2018-07-10T22:55:33.849Z,95492.51
2018-07-10T22:58:07.799Z,95488.49
2018-07-10T23:00:40.235Z,95486.30
2018-07-10T23:03:21.274Z,95477.79
2018-07-10T23:05:52.797Z,95484.58
2018-07-10T23:08:30.461Z,95478.05
2018-07-10T23:11:02.155Z,95473.48
2018-07-10T23:13:33.248Z,95468.91
2018-07-10T23:16:03.473Z,95469.20
2018-07-10T23:18:33.726Z,95468.91
2018-07-10T23:21:04.747Z,95470.02
2018-07-10T23:23:35.012Z,95466.01
2018-07-10T23:26:05.176Z,95458.14
2018-07-10T23:28:35.399Z,95458.14
2018-07-10T23:31:06.144Z,95454.42
2018-07-10T23:33:36.664Z,95456.31
2018-07-10T23:36:07.603Z,95458.92
2018-07-10T23:39:01.011Z,95456.73
2018-07-10T23:41:43.710Z,95456.73
2018-07-10T23:44:13.791Z,95454.87
2018-07-10T23:46:56.599Z,95452.34
2018-07-10T23:49:26.982Z,95452.87
2018-07-10T23:52:32.776Z,95454.50
2018-07-10T23:55:02.951Z,95449.12
2018-07-10T23:57:33.115Z,95442.83
